createdAt,value
2022-10-06T00:01:03.374Z,92.16
2022-10-06T00:06:14.814Z,92.28
2022-10-06T00:11:18.260Z,92.07
2022-10-06T00:16:24.678Z,91.95
2022-10-06T00:21:27.727Z,92.27
2022-10-06T00:26:31.148Z,92.59
2022-10-06T00:31:34.729Z,92.64
2022-10-06T00:36:37.977Z,92.89
2022-10-06T00:41:40.878Z,93.51
2022-10-06T00:46:46.612Z,93.51
2022-10-06T00:51:53.795Z,93.28
2022-10-06T00:56:57.785Z,93.67
2022-10-06T01:02:12.055Z,94.01
2022-10-06T01:07:17.211Z,94.19
2022-10-06T01:12:21.213Z,93.87
2022-10-06T01:17:33.565Z,93.79
2022-10-06T01:22:39.802Z,94.06
2022-10-06T01:27:46.935Z,94.36
2022-10-06T01:32:50.167Z,94.60
2022-10-06T01:37:55.015Z,95.04
2022-10-06T01:42:57.815Z,95.19
2022-10-06T01:48:00.825Z,95.31
2022-10-06T01:53:03.726Z,95.55
2022-10-06T01:58:06.659Z,95.62
2022-10-06T02:03:09.638Z,95.87
2022-10-06T02:08:12.542Z,96.25
2022-10-06T02:13:15.651Z,96.31
2022-10-06T02:18:18.863Z,96.21
2022-10-06T02:23:21.766Z,96.15
2022-10-06T02:28:24.626Z,96.82
2022-10-06T02:33:27.679Z,96.85
2022-10-06T02:38:32.801Z,96.98
2022-10-06T02:43:36.047Z,97.04
2022-10-06T02:48:40.894Z,97.19
2022-10-06T02:53:46.007Z,97.68
2022-10-06T02:58:51.110Z,98.11
2022-10-06T03:03:54.694Z,98.05
2022-10-06T03:09:00.191Z,97.88
2022-10-06T03:14:03.275Z,97.77
2022-10-06T03:19:07.434Z,98.11
2022-10-06T03:24:11.121Z,98.11
2022-10-06T03:29:16.158Z,97.86
2022-10-06T03:34:19.016Z,98.32
2022-10-06T03:39:21.819Z,98.61
2022-10-06T03:44:24.723Z,98.62
2022-10-06T03:49:27.522Z,99.11
2022-10-06T03:54:30.427Z,99.16
2022-10-06T03:59:34.475Z,99.35
2022-10-06T04:04:38.830Z,99.45
2022-10-06T04:09:41.698Z,99.74
2022-10-06T04:14:44.505Z,99.89
2022-10-06T04:19:47.311Z,99.96
2022-10-06T04:24:50.826Z,100.00
2022-10-06T04:29:53.727Z,100.00
2022-10-06T04:34:56.533Z,100.00
2022-10-06T04:39:59.739Z,100.00
2022-10-06T04:45:03.363Z,100.00
2022-10-06T04:50:06.644Z,100.00
2022-10-06T04:55:11.318Z,100.00
2022-10-06T05:00:23.087Z,100.00
2022-10-06T05:05:25.969Z,100.00
2022-10-06T05:10:29.457Z,99.92
2022-10-06T05:15:32.563Z,99.10
2022-10-06T05:20:35.568Z,98.59
2022-10-06T05:25:38.456Z,98.64
2022-10-06T05:30:41.310Z,98.38
2022-10-06T05:35:55.238Z,97.62
2022-10-06T05:41:06.453Z,96.66
2022-10-06T05:46:17.675Z,96.34
2022-10-06T05:51:23.100Z,96.30
2022-10-06T05:56:32.646Z,96.36
2022-10-06T06:01:40.027Z,96.52
2022-10-06T06:06:45.435Z,96.46
2022-10-06T06:11:51.101Z,96.30
2022-10-06T06:16:54.056Z,95.96
2022-10-06T06:21:57.240Z,95.28
2022-10-06T06:27:00.023Z,94.33
2022-10-06T06:32:02.923Z,92.94
2022-10-06T06:37:09.431Z,90.58
2022-10-06T06:42:14.572Z,87.33
2022-10-06T06:47:19.944Z,78.58
2022-10-06T06:52:26.224Z,68.10
2022-10-06T06:57:29.128Z,57.59
2022-10-06T07:02:32.054Z,52.59
2022-10-06T07:07:36.260Z,47.69
2022-10-06T07:12:39.164Z,44.81
2022-10-06T07:18:01.423Z,43.92
2022-10-06T07:23:23.476Z,41.07
2022-10-06T07:28:26.321Z,39.95
2022-10-06T07:33:31.333Z,39.23
2022-10-06T07:38:34.238Z,38.57
2022-10-06T07:43:37.041Z,37.74
2022-10-06T07:48:40.164Z,36.27
2022-10-06T07:53:50.308Z,37.24
2022-10-06T07:58:53.167Z,42.45
2022-10-06T08:03:56.745Z,47.25
2022-10-06T08:08:59.546Z,48.77
2022-10-06T08:14:02.456Z,41.91
2022-10-06T08:19:05.252Z,36.63
2022-10-06T08:24:08.101Z,32.66
2022-10-06T08:29:11.784Z,30.74
2022-10-06T08:34:15.197Z,30.77
2022-10-06T08:39:18.953Z,33.65
2022-10-06T08:44:43.430Z,39.06
2022-10-06T08:49:48.485Z,42.55
2022-10-06T08:55:14.125Z,39.72
2022-10-06T09:00:21.227Z,36.01
2022-10-06T09:05:26.934Z,38.68
2022-10-06T09:10:38.708Z,43.90
2022-10-06T09:15:50.060Z,48.12
2022-10-06T09:20:57.370Z,50.24
2022-10-06T09:26:02.170Z,51.27
2022-10-06T09:31:37.876Z,52.20
2022-10-06T09:37:02.306Z,53.51
2022-10-06T09:42:14.164Z,53.94
2022-10-06T09:47:37.152Z,52.64
2022-10-06T09:53:05.854Z,46.74
2022-10-06T09:58:18.794Z,43.11
2022-10-06T10:03:23.286Z,42.22
2022-10-06T10:08:30.864Z,40.89
2022-10-06T10:13:42.454Z,41.93
2022-10-06T10:18:48.333Z,43.95
2022-10-06T10:23:59.834Z,39.30
2022-10-06T10:29:21.274Z,33.94
2022-10-06T10:34:55.472Z,34.59
2022-10-06T10:40:03.754Z,28.46
2022-10-06T10:45:25.624Z,25.43
2022-10-06T10:50:48.256Z,24.33
2022-10-06T10:55:53.417Z,24.29
2022-10-06T11:01:05.562Z,26.12
2022-10-06T11:06:22.264Z,27.69
2022-10-06T11:12:00.702Z,29.89
2022-10-06T11:17:12.557Z,34.65
2022-10-06T11:22:34.466Z,38.05
2022-10-06T11:27:49.511Z,41.42
2022-10-06T11:33:14.597Z,43.57
2022-10-06T11:38:35.101Z,42.07
2022-10-06T11:44:05.445Z,34.44
2022-10-06T11:49:30.883Z,30.82
2022-10-06T11:54:56.586Z,33.08
2022-10-06T12:00:02.390Z,36.20
2022-10-06T12:10:49.158Z,38.80
2022-10-06T12:22:11.564Z,31.55
2022-10-06T12:27:35.572Z,27.76
2022-10-06T12:32:58.029Z,27.34
2022-10-06T12:38:06.217Z,25.61
2022-10-06T12:43:14.899Z,24.62
2022-10-06T12:48:41.665Z,23.52
2022-10-06T12:53:53.782Z,22.52
2022-10-06T12:58:56.683Z,21.69
2022-10-06T13:03:59.596Z,22.03
2022-10-06T13:09:13.083Z,22.19
2022-10-06T13:14:16.456Z,22.31
2022-10-06T13:19:27.142Z,21.91
2022-10-06T13:24:30.256Z,22.18
2022-10-06T13:29:33.156Z,22.76
2022-10-06T13:34:43.408Z,22.45
2022-10-06T13:39:46.844Z,21.38
2022-10-06T13:45:01.632Z,22.12
2022-10-06T13:50:18.770Z,22.56
2022-10-06T13:55:25.478Z,22.70
2022-10-06T14:00:30.120Z,23.97
2022-10-06T14:05:45.911Z,24.96
2022-10-06T14:10:55.067Z,25.18
2022-10-06T14:16:03.012Z,25.57
2022-10-06T14:21:27.705Z,26.25
2022-10-06T14:26:34.603Z,27.24
2022-10-06T14:31:37.530Z,27.62
2022-10-06T14:36:42.665Z,27.90
2022-10-06T14:41:45.983Z,28.39
2022-10-06T14:46:50.382Z,29.42
2022-10-06T14:51:57.114Z,29.88
2022-10-06T14:57:00.223Z,31.27
2022-10-06T15:02:04.065Z,32.72
2022-10-06T15:07:25.793Z,33.87
2022-10-06T15:12:33.126Z,35.12
2022-10-06T15:17:36.930Z,36.15
2022-10-06T15:22:40.139Z,37.25
2022-10-06T15:28:16.648Z,38.58
2022-10-06T15:33:21.688Z,39.74
2022-10-06T15:38:24.590Z,41.07
2022-10-06T15:43:47.363Z,42.34
2022-10-06T15:48:50.268Z,44.05
2022-10-06T15:53:53.582Z,45.80
2022-10-06T15:58:56.483Z,47.56
2022-10-06T16:04:06.255Z,49.29
2022-10-06T16:09:11.099Z,50.32
2022-10-06T16:14:15.440Z,51.45
2022-10-06T16:19:19.717Z,52.18
2022-10-06T16:24:23.678Z,53.53
2022-10-06T16:29:28.125Z,54.76
2022-10-06T16:34:31.766Z,55.97
2022-10-06T16:39:34.669Z,56.84
2022-10-06T16:44:37.471Z,57.80
2022-10-06T16:49:40.273Z,58.56
2022-10-06T16:54:43.075Z,59.68
2022-10-06T16:59:46.962Z,60.28
2022-10-06T17:04:50.113Z,60.82
2022-10-06T17:10:18.475Z,61.54
2022-10-06T17:15:16.611Z,62.59
2022-10-06T17:20:19.614Z,63.80
2022-10-06T17:25:22.519Z,64.21
2022-10-06T17:30:25.329Z,64.39
2022-10-06T17:35:28.229Z,64.55
2022-10-06T17:40:31.556Z,64.58
2022-10-06T17:45:38.750Z,64.90
2022-10-06T17:50:41.648Z,65.46
2022-10-06T17:55:46.809Z,65.53
2022-10-06T18:00:50.996Z,65.87
2022-10-06T18:05:55.143Z,66.38
2022-10-06T18:11:18.969Z,67.26
2022-10-06T18:16:24.609Z,68.69
2022-10-06T18:21:27.966Z,69.12
2022-10-06T18:26:30.855Z,69.49
2022-10-06T18:31:34.335Z,70.18
2022-10-06T18:36:38.050Z,70.50
2022-10-06T18:41:41.308Z,70.73
2022-10-06T18:47:02.746Z,71.17
2022-10-06T18:52:06.987Z,71.32
2022-10-06T18:57:09.790Z,71.78
2022-10-06T19:02:12.781Z,72.03
2022-10-06T19:07:15.617Z,72.33
2022-10-06T19:12:18.907Z,72.56
2022-10-06T19:17:23.451Z,73.34
2022-10-06T19:22:26.361Z,74.20
2022-10-06T19:27:31.817Z,74.80
2022-10-06T19:32:34.722Z,74.98
2022-10-06T19:37:37.836Z,75.00
2022-10-06T19:42:51.066Z,74.91
2022-10-06T19:47:54.801Z,75.25
2022-10-06T19:52:57.708Z,75.50
2022-10-06T19:58:00.611Z,75.61
2022-10-06T20:03:07.614Z,75.93
2022-10-06T20:08:10.414Z,76.06
2022-10-06T20:13:13.213Z,76.18
2022-10-06T20:18:16.528Z,75.81
2022-10-06T20:23:19.452Z,76.31
2022-10-06T20:28:22.688Z,76.28
2022-10-06T20:33:25.653Z,76.20
2022-10-06T20:38:47.092Z,76.21
2022-10-06T20:43:50.885Z,76.64
2022-10-06T20:48:53.823Z,76.67
2022-10-06T20:53:56.610Z,76.88
2022-10-06T20:59:00.142Z,77.28
2022-10-06T21:04:03.667Z,77.27
2022-10-06T21:09:09.137Z,77.41
2022-10-06T21:14:13.569Z,77.76
2022-10-06T21:19:19.035Z,77.69
2022-10-06T21:24:22.865Z,77.83
2022-10-06T21:29:27.510Z,78.32
2022-10-06T21:34:30.412Z,78.55
2022-10-06T21:39:33.316Z,78.74
2022-10-06T21:44:36.323Z,79.13
2022-10-06T21:49:39.227Z,79.41
2022-10-06T21:54:42.132Z,79.70
2022-10-06T21:59:45.035Z,80.16
2022-10-06T22:04:47.937Z,80.16
2022-10-06T22:09:50.947Z,80.26
2022-10-06T22:14:55.082Z,80.19
2022-10-06T22:19:57.981Z,80.27
2022-10-06T22:25:00.885Z,80.73
2022-10-06T22:30:04.454Z,81.01
2022-10-06T22:35:08.297Z,81.58
2022-10-06T22:40:11.650Z,81.69
2022-10-06T22:45:14.551Z,81.84
2022-10-06T22:50:17.455Z,81.93
2022-10-06T22:55:20.364Z,82.14
2022-10-06T23:00:23.306Z,82.09
2022-10-06T23:05:26.374Z,82.61
2022-10-06T23:10:30.711Z,83.01
2022-10-06T23:15:33.616Z,83.19
2022-10-06T23:20:36.723Z,83.62
2022-10-06T23:25:39.731Z,83.93
2022-10-06T23:30:42.739Z,84.09
2022-10-06T23:35:55.368Z,84.35
2022-10-06T23:40:58.689Z,84.14
2022-10-06T23:46:02.418Z,84.14
2022-10-06T23:51:11.354Z,84.47
2022-10-06T23:56:14.359Z,84.61
